Terminal Aerodrome Forecast
Issued by NWS Jackson, KY

Home | Current Version | Previous Version | Text Only | Print | Product List | Glossary On
Versions: 1 2 3 4 5 6 7 8 9 10 11 12 13 14 15 16 17
000
FTUS43 KJKL 291127
TAFLOZ
TAF
KLOZ 291127Z 2912/3012 18006KT P6SM VCSH SCT060 BKN090
     FM291700 22013G23KT P6SM VCTS SCT045CB BKN060
     FM300400 VRB03KT 5SM BR SCT050=

USA.gov is the U.S. government's official web portal to all federal, state and local government web resources and services.